Time;durP1;ratioP1;P1;durP2;ratioP2;P2;SDS_P1;SDS_P2;PMS_P1;PMS_P2;Temp;Humidity;BMP_temperature;BMP_pressure;BME280_temperature;BME280_humidity;BME280_pressure;Samples;Min_cycle;Max_cycle;Signal;HPM_P1;HPM_P2
2023/09/10 00:02:39;;;;;;;16.02;14.40;;;;;;;19.98;62.50;100698.13;20671880;28;20305;-74
2023/09/10 00:12:42;;;;;;;16.27;14.45;;;;;;;19.45;64.79;100699.22;20675486;28;20241;-74
2023/09/10 00:22:44;;;;;;;17.17;14.52;;;;;;;19.65;63.39;100689.38;20681453;28;20233;-75
2023/09/10 00:32:47;;;;;;;17.88;14.40;;;;;;;19.62;63.28;100690.13;20676224;28;20214;-74
2023/09/10 00:42:49;;;;;;;16.45;13.70;;;;;;;19.90;61.99;100684.88;20677249;28;20233;-74
2023/09/10 00:52:56;;;;;;;16.13;13.35;;;;;;;19.65;63.44;100678.78;20682547;28;20209;-74
2023/09/10 01:02:59;;;;;;;16.02;13.63;;;;;;;19.60;63.43;100673.41;20670488;28;20221;-75
2023/09/10 01:13:09;;;;;;;14.07;12.63;;;;;;;19.41;63.70;100672.66;20665607;28;20664;-75
2023/09/10 01:23:15;;;;;;;15.93;12.60;;;;;;;19.00;66.01;100680.84;20669992;28;20222;-74
2023/09/10 01:33:21;;;;;;;16.15;13.43;;;;;;;18.85;66.58;100676.88;20671431;28;20210;-74
2023/09/10 01:43:23;;;;;;;14.18;12.27;;;;;;;18.69;67.10;100676.16;20661828;28;20229;-74
2023/09/10 01:53:26;;;;;;;16.70;14.13;;;;;;;18.98;66.29;100663.28;20670468;28;20211;-76
2023/09/10 02:03:28;;;;;;;15.80;14.18;;;;;;;19.25;64.60;100661.31;20662741;28;20586;-83
2023/09/10 02:13:31;;;;;;;23.38;13.57;;;;;;;19.23;64.10;100673.13;20663389;28;20650;-74
2023/09/10 02:23:33;;;;;;;14.35;12.80;;;;;;;19.19;64.62;100671.41;20654636;28;20312;-74
2023/09/10 02:33:36;;;;;;;15.15;12.82;;;;;;;18.87;65.43;100679.34;20668967;28;20222;-74
2023/09/10 02:43:38;;;;;;;18.05;12.40;;;;;;;18.71;66.02;100684.31;20684196;28;20217;-75
2023/09/10 02:53:41;;;;;;;15.52;12.10;;;;;;;19.22;63.73;100688.59;20679648;28;20202;-76
2023/09/10 03:03:43;;;;;;;13.88;12.18;;;;;;;18.85;65.33;100701.72;20680017;28;20265;-75
2023/09/10 03:13:46;;;;;;;14.18;12.73;;;;;;;18.79;64.95;100691.84;20680304;28;20325;-75
2023/09/10 03:23:48;;;;;;;16.50;12.23;;;;;;;18.55;65.94;100693.75;20681906;28;20259;-74
2023/09/10 03:33:51;;;;;;;14.75;13.18;;;;;;;18.66;65.67;100687.47;20685406;28;20206;-75
2023/09/10 03:43:53;;;;;;;15.65;13.32;;;;;;;17.92;67.96;100691.09;20679615;28;20228;-74
2023/09/10 03:53:56;;;;;;;17.05;14.48;;;;;;;18.72;65.27;100688.81;20669460;28;20205;-75
2023/09/10 04:03:58;;;;;;;15.10;13.10;;;;;;;18.37;66.43;100703.94;20660526;28;20232;-74
2023/09/10 04:14:01;;;;;;;18.45;13.40;;;;;;;18.15;67.18;100696.94;20672426;28;20243;-75
2023/09/10 04:24:05;;;;;;;16.30;13.57;;;;;;;18.10;67.62;100704.94;20673227;28;20221;-74
2023/09/10 04:34:08;;;;;;;17.33;13.82;;;;;;;18.22;66.29;100707.66;20669510;28;20205;-75
2023/09/10 04:44:10;;;;;;;15.18;13.68;;;;;;;18.41;65.60;100707.69;20673209;28;20227;-82
2023/09/10 04:54:13;;;;;;;17.33;15.20;;;;;;;17.86;68.14;100701.09;20660221;28;20220;-75
2023/09/10 05:04:14;;;;;;;16.35;14.65;;;;;;;18.38;65.97;100707.63;20662927;28;20240;-75
2023/09/10 05:14:18;;;;;;;15.35;13.60;;;;;;;18.17;66.38;100705.13;20662042;28;20234;-75
2023/09/10 05:24:20;;;;;;;14.88;13.30;;;;;;;18.20;66.18;100704.34;20657013;28;20233;-73
2023/09/10 05:34:23;;;;;;;17.38;13.45;;;;;;;18.19;66.73;100714.09;20648877;28;20603;-73
2023/09/10 05:44:25;;;;;;;19.83;13.75;;;;;;;18.69;64.97;100720.94;20652103;28;20491;-73
2023/09/10 05:54:28;;;;;;;16.25;13.68;;;;;;;18.64;65.68;100724.91;20656863;28;20206;-73
2023/09/10 06:04:32;;;;;;;14.82;13.15;;;;;;;18.58;66.25;100718.66;20662764;28;20737;-74
2023/09/10 06:14:35;;;;;;;15.32;13.27;;;;;;;19.08;63.75;100721.75;20648596;28;20248;-74
2023/09/10 06:24:37;;;;;;;15.25;13.75;;;;;;;19.42;62.97;100720.78;20650157;28;20229;-73
2023/09/10 06:34:40;;;;;;;16.92;14.73;;;;;;;19.50;62.76;100727.44;20646564;28;20206;-73
2023/09/10 06:44:43;;;;;;;15.40;13.25;;;;;;;20.07;60.36;100731.28;20648040;28;20698;-74
2023/09/10 06:54:47;;;;;;;14.73;13.23;;;;;;;20.45;60.04;100731.03;20649962;28;20209;-74
2023/09/10 07:04:52;;;;;;;16.48;13.23;;;;;;;20.46;60.36;100734.72;20659023;28;20222;-73
2023/09/10 07:14:57;;;;;;;16.17;13.65;;;;;;;20.92;58.74;100738.22;20646694;28;20267;-73
2023/09/10 07:24:58;;;;;;;17.15;13.95;;;;;;;21.29;57.73;100735.41;20662077;28;20697;-74
2023/09/10 07:35:02;;;;;;;16.13;14.10;;;;;;;21.44;57.50;100740.88;20660331;28;20289;-82
2023/09/10 07:45:05;;;;;;;15.07;12.75;;;;;;;21.52;59.66;100746.69;20664256;28;20218;-82
2023/09/10 07:55:09;;;;;;;14.60;12.40;;;;;;;21.65;59.08;100751.72;20669775;28;20256;-77
2023/09/10 08:05:10;;;;;;;15.95;13.00;;;;;;;22.63;56.26;100746.34;20654977;28;20462;-73
2023/09/10 08:15:14;;;;;;;14.15;11.07;;;;;;;22.19;59.45;100769.41;20661026;28;20261;-78
2023/09/10 08:25:16;;;;;;;16.48;12.85;;;;;;;23.09;55.50;100756.03;20666955;28;20674;-81
2023/09/10 08:35:20;;;;;;;13.93;12.30;;;;;;;23.52;53.86;100756.09;20668061;28;20209;-74
2023/09/10 08:45:23;;;;;;;14.10;12.60;;;;;;;24.13;49.99;100751.28;20648320;28;20224;-74
2023/09/10 08:55:29;;;;;;;13.40;11.07;;;;;;;24.08;52.74;100743.84;20660082;28;20210;-78
2023/09/10 09:05:31;;;;;;;10.73;9.63;;;;;;;24.59;50.58;100733.91;20672058;28;20233;-83
2023/09/10 09:15:34;;;;;;;10.93;8.75;;;;;;;24.47;51.43;100735.19;20674192;28;20237;-78
2023/09/10 09:25:36;;;;;;;9.73;7.85;;;;;;;25.10;48.33;100726.72;20657232;28;20232;-81
2023/09/10 09:35:39;;;;;;;8.75;6.38;;;;;;;25.23;45.54;100722.97;20676292;28;20198;-81
2023/09/10 09:45:41;;;;;;;8.70;4.10;;;;;;;25.36;38.40;100726.19;20678024;28;20230;-75
2023/09/10 09:55:45;;;;;;;8.50;3.22;;;;;;;24.93;38.59;100717.78;20663491;28;20285;-74
2023/09/10 10:05:49;;;;;;;12.93;5.47;;;;;;;26.00;40.29;100712.09;20654529;28;20304;-82
2023/09/10 10:15:57;;;;;;;18.60;6.90;;;;;;;26.31;42.22;100701.53;20645837;28;20281;-74
2023/09/10 10:26:08;;;;;;;22.48;7.50;;;;;;;26.12;40.64;100693.44;20657472;28;20280;-75
2023/09/10 10:36:19;;;;;;;15.38;6.97;;;;;;;26.81;41.51;100683.63;20649633;28;20212;-75
2023/09/10 10:46:24;;;;;;;11.63;7.03;;;;;;;26.50;41.52;100679.03;20636942;28;20229;-77
2023/09/10 10:56:27;;;;;;;14.93;8.32;;;;;;;26.04;41.55;100668.00;20673958;28;20293;-75
2023/09/10 11:06:29;;;;;;;15.38;7.68;;;;;;;27.14;40.00;100663.78;20664310;28;20280;-75
2023/09/10 11:16:32;;;;;;;18.42;7.38;;;;;;;27.48;38.97;100652.94;20648259;28;20230;-74
2023/09/10 11:26:34;;;;;;;14.88;7.95;;;;;;;27.57;38.11;100627.19;20646715;28;20522;-72
2023/09/10 11:36:38;;;;;;;14.70;6.72;;;;;;;27.75;36.58;100639.25;20654486;28;20564;-74
2023/09/10 11:46:41;;;;;;;17.48;6.63;;;;;;;27.86;36.88;100632.47;20653997;28;20257;-73
2023/09/10 11:56:44;;;;;;;11.23;6.03;;;;;;;27.90;37.08;100639.84;20664246;28;20209;-73
2023/09/10 12:06:46;;;;;;;13.57;6.28;;;;;;;27.97;37.22;100621.53;20669542;28;20251;-73
2023/09/10 12:16:49;;;;;;;14.52;6.43;;;;;;;28.13;36.99;100618.72;20658120;28;20221;-74
2023/09/10 12:26:51;;;;;;;16.98;6.88;;;;;;;28.82;35.90;100613.19;20658821;28;20226;-73
2023/09/10 12:36:57;;;;;;;15.75;6.13;;;;;;;28.10;36.74;100619.63;20655302;28;20198;-73
2023/09/10 12:46:59;;;;;;;16.40;6.05;;;;;;;29.31;35.39;100612.03;20650061;28;20743;-73
2023/09/10 12:57:07;;;;;;;15.27;5.85;;;;;;;28.07;35.97;100608.91;20657315;28;20623;-73
2023/09/10 13:07:12;;;;;;;12.13;5.88;;;;;;;28.77;37.84;100600.88;20642865;28;20658;-73
2023/09/10 13:17:17;;;;;;;14.65;6.53;;;;;;;28.96;35.59;100593.41;20647372;28;20244;-73
2023/09/10 13:27:19;;;;;;;14.30;5.70;;;;;;;27.59;37.50;100589.97;20650905;28;20703;-73
2023/09/10 13:37:23;;;;;;;13.05;5.57;;;;;;;28.51;38.72;100586.53;20650014;28;20289;-73
2023/09/10 13:47:25;;;;;;;9.63;5.25;;;;;;;28.54;37.57;100571.19;20648065;28;20222;-73
2023/09/10 13:57:28;;;;;;;15.52;5.50;;;;;;;28.58;37.26;100566.09;20644237;28;20259;-73
2023/09/10 14:07:30;;;;;;;11.90;6.40;;;;;;;28.60;37.49;100560.69;20642952;28;20225;-73
2023/09/10 14:17:34;;;;;;;16.23;6.07;;;;;;;28.80;37.74;100568.13;20636507;28;20591;-73
2023/09/10 14:27:35;;;;;;;13.82;5.35;;;;;;;28.30;37.93;100548.13;20650391;28;20291;-73
2023/09/10 14:37:38;;;;;;;13.73;5.82;;;;;;;28.30;38.66;100547.31;20663300;28;20575;-73
2023/09/10 14:47:40;;;;;;;16.08;5.57;;;;;;;27.87;38.76;100547.34;20670273;28;20218;-73
2023/09/10 14:57:44;;;;;;;13.02;5.80;;;;;;;27.97;38.07;100541.34;20661937;28;20301;-73
2023/09/10 15:07:46;;;;;;;13.43;5.78;;;;;;;28.16;39.72;100542.63;20659263;28;20226;-72
2023/09/10 15:17:50;;;;;;;14.07;5.53;;;;;;;28.10;37.73;100550.16;20659165;28;20297;-81
2023/09/10 15:27:53;;;;;;;13.82;5.93;;;;;;;28.27;37.66;100531.66;20665025;28;20646;-73
2023/09/10 15:37:56;;;;;;;12.18;6.85;;;;;;;27.95;38.58;100525.69;20666458;28;20194;-74
2023/09/10 15:47:58;;;;;;;19.40;6.55;;;;;;;28.33;38.28;100521.16;20657234;28;20220;-74
2023/09/10 15:58:01;;;;;;;14.10;5.65;;;;;;;28.35;37.64;100509.97;20666981;28;20209;-77
2023/09/10 16:08:03;;;;;;;13.70;6.05;;;;;;;28.32;39.69;100505.06;20652997;28;20280;-75
2023/09/10 16:18:06;;;;;;;16.75;6.63;;;;;;;27.89;39.31;100502.25;20648948;28;20238;-76
2023/09/10 16:28:08;;;;;;;17.52;6.68;;;;;;;28.15;42.40;100497.56;20654111;28;20225;-80
2023/09/10 16:38:12;;;;;;;17.42;6.68;;;;;;;27.79;43.71;100499.59;20655523;28;20614;-80
2023/09/10 16:48:14;;;;;;;16.15;6.55;;;;;;;27.18;45.55;100505.63;20645439;28;20540;-74
2023/09/10 16:58:17;;;;;;;12.70;6.32;;;;;;;27.26;45.67;100508.00;20655613;28;20206;-75
2023/09/10 17:08:19;;;;;;;16.67;7.05;;;;;;;26.97;46.96;100507.66;20654870;28;20222;-75
2023/09/10 17:18:23;;;;;;;17.90;7.80;;;;;;;26.72;48.13;100501.44;20648715;28;20583;-74
2023/09/10 17:28:25;;;;;;;16.00;6.80;;;;;;;26.39;48.42;100499.44;20653756;28;20226;-74
2023/09/10 17:38:28;;;;;;;17.25;7.45;;;;;;;26.10;49.92;100496.13;20641856;28;20202;-74
2023/09/10 17:48:30;;;;;;;16.33;7.78;;;;;;;26.24;48.80;100495.94;20642834;28;20594;-79
2023/09/10 17:58:33;;;;;;;19.23;8.27;;;;;;;25.55;50.14;100498.00;20640683;28;20212;-79
2023/09/10 18:08:35;;;;;;;15.90;8.48;;;;;;;25.42;51.03;100501.84;20633392;28;20226;-76
2023/09/10 18:18:38;;;;;;;15.35;8.50;;;;;;;25.19;51.95;100503.31;20641941;28;20328;-80
2023/09/10 18:28:40;;;;;;;16.30;9.43;;;;;;;25.23;53.98;100518.47;20645896;28;20279;-79
2023/09/10 18:38:52;;;;;;;14.38;9.10;;;;;;;24.95;55.04;100538.84;20650047;28;20202;-74
2023/09/10 18:48:54;;;;;;;15.85;9.30;;;;;;;24.81;55.00;100538.97;20653603;28;20221;-74
2023/09/10 18:58:57;;;;;;;16.10;9.55;;;;;;;24.39;56.98;100540.00;20640308;28;20255;-74
2023/09/10 19:08:58;;;;;;;15.40;10.90;;;;;;;24.45;56.32;100544.06;20639410;28;20233;-74
2023/09/10 19:19:01;;;;;;;17.77;11.15;;;;;;;24.38;56.74;100541.25;20640447;28;20198;-74
2023/09/10 19:29:04;;;;;;;17.45;9.55;;;;;;;24.04;57.36;100538.91;20650441;28;20855;-76
2023/09/10 19:39:09;;;;;;;18.42;10.93;;;;;;;23.96;58.02;100540.16;20667337;28;20606;-74
2023/09/10 19:49:12;;;;;;;24.15;9.63;;;;;;;24.06;56.81;100538.47;20662345;28;20217;-77
2023/09/10 19:59:16;;;;;;;17.33;8.80;;;;;;;24.02;56.54;100541.41;20663102;28;20207;-75
2023/09/10 20:09:18;;;;;;;16.67;9.20;;;;;;;23.84;57.00;100544.31;20647945;28;20250;-75
2023/09/10 20:19:21;;;;;;;15.13;8.13;;;;;;;23.81;56.27;100527.91;20647646;28;20558;-74
2023/09/10 20:29:23;;;;;;;18.50;9.38;;;;;;;23.83;55.78;100522.56;20644939;28;20225;-74
2023/09/10 20:39:26;;;;;;;18.20;8.75;;;;;;;23.62;56.84;100516.06;20658978;28;20740;-75
2023/09/10 20:49:28;;;;;;;20.95;7.90;;;;;;;23.34;57.04;100511.97;20657933;28;20225;-75
2023/09/10 20:59:31;;;;;;;13.95;8.40;;;;;;;23.00;57.89;100507.88;20644024;28;20201;-74
2023/09/10 21:09:32;;;;;;;15.70;8.40;;;;;;;22.92;58.62;100520.59;20651975;28;20236;-74
2023/09/10 21:19:35;;;;;;;13.80;7.32;;;;;;;22.69;60.05;100513.19;20649775;28;20662;-74
2023/09/10 21:29:37;;;;;;;19.02;8.23;;;;;;;22.81;58.89;100515.66;20657804;28;20232;-74
2023/09/10 21:39:41;;;;;;;17.85;7.70;;;;;;;22.54;60.23;100505.78;20656992;28;20253;-74
2023/09/10 21:49:43;;;;;;;16.73;8.52;;;;;;;22.54;59.78;100494.31;20635296;28;20257;-76
2023/09/10 21:59:46;;;;;;;17.67;7.63;;;;;;;22.33;59.82;100500.00;20654755;28;20203;-75
2023/09/10 22:09:48;;;;;;;15.73;7.65;;;;;;;21.82;62.62;100498.16;20650013;28;20321;-74
2023/09/10 22:19:51;;;;;;;21.63;8.05;;;;;;;22.03;61.10;100485.97;20658345;28;20606;-74
2023/09/10 22:29:53;;;;;;;17.23;8.48;;;;;;;22.07;60.82;100473.31;20639540;28;20308;-74
2023/09/10 22:39:56;;;;;;;22.27;9.35;;;;;;;21.67;62.29;100468.59;20657385;28;20628;-74
2023/09/10 22:49:58;;;;;;;15.10;9.00;;;;;;;21.88;61.42;100467.91;20646617;28;20518;-74
2023/09/10 23:00:01;;;;;;;19.17;9.68;;;;;;;21.81;61.31;100450.69;20665732;28;20451;-74
2023/09/10 23:10:02;;;;;;;22.00;9.85;;;;;;;22.09;60.34;100461.41;20673692;28;20312;-75
2023/09/10 23:20:10;;;;;;;15.27;8.55;;;;;;;21.78;61.43;100457.19;20674814;28;20198;-80
2023/09/10 23:30:12;;;;;;;20.73;9.45;;;;;;;21.46;62.04;100445.56;20672235;28;20697;-80
2023/09/10 23:40:15;;;;;;;14.82;9.65;;;;;;;21.45;62.12;100433.28;20673931;28;20198;-75
2023/09/10 23:50:17;;;;;;;17.92;9.63;;;;;;;21.02;64.31;100419.94;20667952;28;20313;-75
